sensor_id;sensor_type;location;lat;lon;timestamp;P1;durP1;ratioP1;P2;durP2;ratioP2
19605;SDS011;9950;50.168;8.210;2023-05-24T00:02:08;10.77;;;4.80;;
19605;SDS011;9950;50.168;8.210;2023-05-24T00:04:37;13.63;;;5.22;;
19605;SDS011;9950;50.168;8.210;2023-05-24T00:07:05;8.45;;;4.63;;
19605;SDS011;9950;50.168;8.210;2023-05-24T00:09:32;10.35;;;5.40;;
19605;SDS011;9950;50.168;8.210;2023-05-24T00:11:59;13.30;;;4.93;;
19605;SDS011;9950;50.168;8.210;2023-05-24T00:14:26;9.55;;;4.78;;
19605;SDS011;9950;50.168;8.210;2023-05-24T00:16:55;7.63;;;4.88;;
19605;SDS011;9950;50.168;8.210;2023-05-24T00:19:22;8.65;;;4.63;;
19605;SDS011;9950;50.168;8.210;2023-05-24T00:21:49;18.05;;;5.70;;
19605;SDS011;9950;50.168;8.210;2023-05-24T00:24:17;11.73;;;5.03;;
19605;SDS011;9950;50.168;8.210;2023-05-24T00:26:44;8.85;;;4.68;;
19605;SDS011;9950;50.168;8.210;2023-05-24T00:29:12;10.68;;;5.47;;
19605;SDS011;9950;50.168;8.210;2023-05-24T00:31:39;13.63;;;4.80;;
19605;SDS011;9950;50.168;8.210;2023-05-24T00:34:08;9.85;;;4.75;;
19605;SDS011;9950;50.168;8.210;2023-05-24T00:36:35;10.55;;;4.90;;
19605;SDS011;9950;50.168;8.210;2023-05-24T00:39:02;13.52;;;4.72;;
19605;SDS011;9950;50.168;8.210;2023-05-24T00:41:29;16.10;;;4.95;;
19605;SDS011;9950;50.168;8.210;2023-05-24T00:43:57;12.60;;;5.03;;
19605;SDS011;9950;50.168;8.210;2023-05-24T00:46:26;10.43;;;4.78;;
19605;SDS011;9950;50.168;8.210;2023-05-24T00:48:55;9.00;;;4.88;;
19605;SDS011;9950;50.168;8.210;2023-05-24T00:51:24;10.50;;;4.70;;
19605;SDS011;9950;50.168;8.210;2023-05-24T00:53:52;11.93;;;5.05;;
19605;SDS011;9950;50.168;8.210;2023-05-24T00:56:19;13.57;;;5.00;;
19605;SDS011;9950;50.168;8.210;2023-05-24T00:58:47;16.67;;;6.72;;
19605;SDS011;9950;50.168;8.210;2023-05-24T01:01:18;16.88;;;4.85;;
19605;SDS011;9950;50.168;8.210;2023-05-24T01:03:45;15.95;;;5.30;;
19605;SDS011;9950;50.168;8.210;2023-05-24T01:06:12;16.05;;;5.35;;
19605;SDS011;9950;50.168;8.210;2023-05-24T01:08:44;19.58;;;5.22;;
19605;SDS011;9950;50.168;8.210;2023-05-24T01:11:16;15.05;;;5.28;;
19605;SDS011;9950;50.168;8.210;2023-05-24T01:13:47;9.20;;;4.72;;
19605;SDS011;9950;50.168;8.210;2023-05-24T01:16:18;12.27;;;5.30;;
19605;SDS011;9950;50.168;8.210;2023-05-24T01:18:49;16.27;;;4.82;;
19605;SDS011;9950;50.168;8.210;2023-05-24T01:21:27;12.82;;;4.90;;
19605;SDS011;9950;50.168;8.210;2023-05-24T01:24:07;13.05;;;4.75;;
19605;SDS011;9950;50.168;8.210;2023-05-24T01:26:41;12.70;;;4.50;;
19605;SDS011;9950;50.168;8.210;2023-05-24T01:29:12;13.38;;;4.75;;
19605;SDS011;9950;50.168;8.210;2023-05-24T01:31:40;16.75;;;4.47;;
19605;SDS011;9950;50.168;8.210;2023-05-24T01:34:08;10.45;;;4.68;;
19605;SDS011;9950;50.168;8.210;2023-05-24T01:36:35;16.48;;;5.35;;
19605;SDS011;9950;50.168;8.210;2023-05-24T01:39:02;13.50;;;4.90;;
19605;SDS011;9950;50.168;8.210;2023-05-24T01:41:33;15.18;;;4.47;;
19605;SDS011;9950;50.168;8.210;2023-05-24T01:44:03;16.45;;;4.97;;
19605;SDS011;9950;50.168;8.210;2023-05-24T01:46:35;16.60;;;4.97;;
19605;SDS011;9950;50.168;8.210;2023-05-24T01:49:08;19.48;;;5.30;;
19605;SDS011;9950;50.168;8.210;2023-05-24T01:51:37;11.30;;;4.88;;
19605;SDS011;9950;50.168;8.210;2023-05-24T01:54:08;17.58;;;5.13;;
19605;SDS011;9950;50.168;8.210;2023-05-24T01:56:35;9.30;;;4.40;;
19605;SDS011;9950;50.168;8.210;2023-05-24T01:59:03;12.27;;;5.10;;
19605;SDS011;9950;50.168;8.210;2023-05-24T02:01:30;14.98;;;5.30;;
19605;SDS011;9950;50.168;8.210;2023-05-24T02:03:59;11.90;;;4.78;;
19605;SDS011;9950;50.168;8.210;2023-05-24T02:06:26;12.07;;;4.75;;
19605;SDS011;9950;50.168;8.210;2023-05-24T02:08:53;11.63;;;4.30;;
19605;SDS011;9950;50.168;8.210;2023-05-24T02:11:21;17.02;;;5.20;;
19605;SDS011;9950;50.168;8.210;2023-05-24T02:13:48;16.85;;;4.60;;
19605;SDS011;9950;50.168;8.210;2023-05-24T02:16:15;12.20;;;4.97;;
19605;SDS011;9950;50.168;8.210;2023-05-24T02:18:42;13.23;;;5.07;;
19605;SDS011;9950;50.168;8.210;2023-05-24T02:21:12;16.67;;;4.72;;
19605;SDS011;9950;50.168;8.210;2023-05-24T02:23:39;11.40;;;4.82;;
19605;SDS011;9950;50.168;8.210;2023-05-24T02:26:06;12.00;;;4.57;;
19605;SDS011;9950;50.168;8.210;2023-05-24T02:28:35;11.35;;;4.38;;
19605;SDS011;9950;50.168;8.210;2023-05-24T02:31:02;14.57;;;4.78;;
19605;SDS011;9950;50.168;8.210;2023-05-24T02:33:30;17.73;;;5.18;;
19605;SDS011;9950;50.168;8.210;2023-05-24T02:35:57;16.48;;;5.40;;
19605;SDS011;9950;50.168;8.210;2023-05-24T02:38:26;15.32;;;4.72;;
19605;SDS011;9950;50.168;8.210;2023-05-24T02:40:53;16.63;;;6.13;;
19605;SDS011;9950;50.168;8.210;2023-05-24T02:43:20;10.90;;;4.28;;
19605;SDS011;9950;50.168;8.210;2023-05-24T02:45:47;14.50;;;4.47;;
19605;SDS011;9950;50.168;8.210;2023-05-24T02:48:14;16.90;;;4.70;;
19605;SDS011;9950;50.168;8.210;2023-05-24T02:50:42;14.75;;;4.95;;
19605;SDS011;9950;50.168;8.210;2023-05-24T02:53:09;14.40;;;4.68;;
19605;SDS011;9950;50.168;8.210;2023-05-24T02:55:38;10.48;;;4.15;;
19605;SDS011;9950;50.168;8.210;2023-05-24T02:58:08;13.30;;;4.85;;
19605;SDS011;9950;50.168;8.210;2023-05-24T03:00:36;17.05;;;5.40;;
19605;SDS011;9950;50.168;8.210;2023-05-24T03:03:03;13.43;;;4.72;;
19605;SDS011;9950;50.168;8.210;2023-05-24T03:05:30;11.57;;;4.15;;
19605;SDS011;9950;50.168;8.210;2023-05-24T03:07:57;14.88;;;4.40;;
19605;SDS011;9950;50.168;8.210;2023-05-24T03:10:24;12.27;;;4.60;;
19605;SDS011;9950;50.168;8.210;2023-05-24T03:12:53;12.82;;;4.40;;
19605;SDS011;9950;50.168;8.210;2023-05-24T03:15:20;13.07;;;4.72;;
19605;SDS011;9950;50.168;8.210;2023-05-24T03:17:47;18.70;;;4.88;;
19605;SDS011;9950;50.168;8.210;2023-05-24T03:20:14;14.32;;;4.40;;
19605;SDS011;9950;50.168;8.210;2023-05-24T03:22:42;11.07;;;4.40;;
19605;SDS011;9950;50.168;8.210;2023-05-24T03:25:09;9.98;;;4.47;;
19605;SDS011;9950;50.168;8.210;2023-05-24T03:27:36;11.90;;;4.60;;
19605;SDS011;9950;50.168;8.210;2023-05-24T03:30:06;14.45;;;4.30;;
19605;SDS011;9950;50.168;8.210;2023-05-24T03:32:33;11.25;;;5.18;;
19605;SDS011;9950;50.168;8.210;2023-05-24T03:35:00;9.45;;;4.40;;
19605;SDS011;9950;50.168;8.210;2023-05-24T03:37:27;13.57;;;4.45;;
19605;SDS011;9950;50.168;8.210;2023-05-24T03:39:54;11.93;;;4.40;;
19605;SDS011;9950;50.168;8.210;2023-05-24T03:42:22;11.02;;;4.40;;
19605;SDS011;9950;50.168;8.210;2023-05-24T03:44:49;13.98;;;5.07;;
19605;SDS011;9950;50.168;8.210;2023-05-24T03:47:17;15.82;;;4.85;;
19605;SDS011;9950;50.168;8.210;2023-05-24T03:49:45;17.83;;;5.15;;
19605;SDS011;9950;50.168;8.210;2023-05-24T03:52:12;9.77;;;4.55;;
19605;SDS011;9950;50.168;8.210;2023-05-24T03:54:39;11.43;;;4.47;;
19605;SDS011;9950;50.168;8.210;2023-05-24T03:57:07;15.57;;;4.40;;
19605;SDS011;9950;50.168;8.210;2023-05-24T03:59:34;15.63;;;5.63;;
19605;SDS011;9950;50.168;8.210;2023-05-24T04:02:01;8.75;;;3.85;;
19605;SDS011;9950;50.168;8.210;2023-05-24T04:04:30;19.10;;;5.22;;
19605;SDS011;9950;50.168;8.210;2023-05-24T04:06:57;17.23;;;4.88;;
19605;SDS011;9950;50.168;8.210;2023-05-24T04:09:24;14.18;;;6.18;;
19605;SDS011;9950;50.168;8.210;2023-05-24T04:11:51;13.48;;;5.03;;
19605;SDS011;9950;50.168;8.210;2023-05-24T04:14:18;12.80;;;4.65;;
19605;SDS011;9950;50.168;8.210;2023-05-24T04:16:45;17.55;;;4.97;;
19605;SDS011;9950;50.168;8.210;2023-05-24T04:19:13;14.82;;;4.68;;
19605;SDS011;9950;50.168;8.210;2023-05-24T04:21:41;10.30;;;4.47;;
19605;SDS011;9950;50.168;8.210;2023-05-24T04:24:08;10.10;;;3.80;;
19605;SDS011;9950;50.168;8.210;2023-05-24T04:26:36;10.77;;;4.03;;
19605;SDS011;9950;50.168;8.210;2023-05-24T04:29:03;13.77;;;4.32;;
19605;SDS011;9950;50.168;8.210;2023-05-24T04:31:31;10.65;;;4.90;;
19605;SDS011;9950;50.168;8.210;2023-05-24T04:33:59;13.23;;;4.35;;
19605;SDS011;9950;50.168;8.210;2023-05-24T04:36:26;10.90;;;4.65;;
19605;SDS011;9950;50.168;8.210;2023-05-24T04:38:56;11.93;;;4.35;;
19605;SDS011;9950;50.168;8.210;2023-05-24T04:41:27;14.50;;;4.00;;
19605;SDS011;9950;50.168;8.210;2023-05-24T04:43:56;14.45;;;4.53;;
19605;SDS011;9950;50.168;8.210;2023-05-24T04:46:23;10.77;;;4.47;;
19605;SDS011;9950;50.168;8.210;2023-05-24T04:48:51;16.40;;;6.00;;
19605;SDS011;9950;50.168;8.210;2023-05-24T04:51:18;12.27;;;4.95;;
19605;SDS011;9950;50.168;8.210;2023-05-24T04:53:45;17.65;;;5.47;;
19605;SDS011;9950;50.168;8.210;2023-05-24T04:56:14;13.68;;;5.35;;
19605;SDS011;9950;50.168;8.210;2023-05-24T04:58:41;13.55;;;4.65;;
19605;SDS011;9950;50.168;8.210;2023-05-24T05:01:08;15.07;;;4.32;;
19605;SDS011;9950;50.168;8.210;2023-05-24T05:03:35;15.25;;;4.35;;
19605;SDS011;9950;50.168;8.210;2023-05-24T05:06:03;17.98;;;5.32;;
19605;SDS011;9950;50.168;8.210;2023-05-24T05:08:30;13.18;;;4.25;;
19605;SDS011;9950;50.168;8.210;2023-05-24T05:10:57;15.60;;;4.20;;
19605;SDS011;9950;50.168;8.210;2023-05-24T05:13:26;13.25;;;3.90;;
19605;SDS011;9950;50.168;8.210;2023-05-24T05:15:53;10.30;;;4.28;;
19605;SDS011;9950;50.168;8.210;2023-05-24T05:18:20;12.10;;;3.97;;
19605;SDS011;9950;50.168;8.210;2023-05-24T05:20:47;13.93;;;3.88;;
19605;SDS011;9950;50.168;8.210;2023-05-24T05:23:15;14.52;;;4.22;;
19605;SDS011;9950;50.168;8.210;2023-05-24T05:25:42;11.32;;;3.90;;
19605;SDS011;9950;50.168;8.210;2023-05-24T05:28:10;15.10;;;3.95;;
19605;SDS011;9950;50.168;8.210;2023-05-24T05:30:38;13.15;;;3.60;;
19605;SDS011;9950;50.168;8.210;2023-05-24T05:33:05;12.25;;;3.72;;
19605;SDS011;9950;50.168;8.210;2023-05-24T05:35:49;13.73;;;3.75;;
19605;SDS011;9950;50.168;8.210;2023-05-24T05:38:16;14.57;;;3.20;;
19605;SDS011;9950;50.168;8.210;2023-05-24T05:40:43;11.55;;;3.63;;
19605;SDS011;9950;50.168;8.210;2023-05-24T05:43:10;21.75;;;4.78;;
19605;SDS011;9950;50.168;8.210;2023-05-24T05:45:38;13.15;;;3.33;;
19605;SDS011;9950;50.168;8.210;2023-05-24T05:48:05;15.02;;;3.70;;
19605;SDS011;9950;50.168;8.210;2023-05-24T05:50:32;10.45;;;3.10;;
19605;SDS011;9950;50.168;8.210;2023-05-24T05:53:01;13.10;;;3.15;;
19605;SDS011;9950;50.168;8.210;2023-05-24T05:55:28;15.57;;;3.70;;
19605;SDS011;9950;50.168;8.210;2023-05-24T05:57:55;10.25;;;3.00;;
19605;SDS011;9950;50.168;8.210;2023-05-24T06:00:22;12.90;;;3.15;;
19605;SDS011;9950;50.168;8.210;2023-05-24T06:02:49;12.35;;;2.83;;
19605;SDS011;9950;50.168;8.210;2023-05-24T06:05:16;10.30;;;2.55;;
19605;SDS011;9950;50.168;8.210;2023-05-24T06:07:44;12.48;;;3.90;;
19605;SDS011;9950;50.168;8.210;2023-05-24T06:10:14;12.18;;;2.97;;
19605;SDS011;9950;50.168;8.210;2023-05-24T06:12:41;11.20;;;2.90;;
19605;SDS011;9950;50.168;8.210;2023-05-24T06:15:08;15.93;;;3.03;;
19605;SDS011;9950;50.168;8.210;2023-05-24T06:17:36;18.08;;;3.40;;
19605;SDS011;9950;50.168;8.210;2023-05-24T06:20:03;12.98;;;2.83;;
19605;SDS011;9950;50.168;8.210;2023-05-24T06:22:32;14.68;;;3.65;;
19605;SDS011;9950;50.168;8.210;2023-05-24T06:25:01;8.38;;;2.60;;
19605;SDS011;9950;50.168;8.210;2023-05-24T06:27:30;13.77;;;3.55;;
19605;SDS011;9950;50.168;8.210;2023-05-24T06:29:57;14.48;;;2.92;;
19605;SDS011;9950;50.168;8.210;2023-05-24T06:32:24;11.73;;;3.42;;
19605;SDS011;9950;50.168;8.210;2023-05-24T06:34:51;11.52;;;3.72;;
19605;SDS011;9950;50.168;8.210;2023-05-24T06:37:18;9.25;;;2.72;;
19605;SDS011;9950;50.168;8.210;2023-05-24T06:39:49;14.57;;;3.80;;
19605;SDS011;9950;50.168;8.210;2023-05-24T06:42:16;12.65;;;3.15;;
19605;SDS011;9950;50.168;8.210;2023-05-24T06:44:47;10.05;;;2.70;;
19605;SDS011;9950;50.168;8.210;2023-05-24T06:47:14;14.70;;;3.72;;
19605;SDS011;9950;50.168;8.210;2023-05-24T06:49:41;17.90;;;3.22;;
19605;SDS011;9950;50.168;8.210;2023-05-24T06:52:09;12.68;;;2.67;;
19605;SDS011;9950;50.168;8.210;2023-05-24T06:54:37;13.68;;;4.03;;
19605;SDS011;9950;50.168;8.210;2023-05-24T06:57:05;11.18;;;2.80;;
19605;SDS011;9950;50.168;8.210;2023-05-24T06:59:32;8.10;;;2.70;;
19605;SDS011;9950;50.168;8.210;2023-05-24T07:02:01;16.58;;;2.97;;
19605;SDS011;9950;50.168;8.210;2023-05-24T07:04:28;8.73;;;2.95;;
19605;SDS011;9950;50.168;8.210;2023-05-24T07:06:56;12.40;;;3.35;;
19605;SDS011;9950;50.168;8.210;2023-05-24T07:09:23;16.88;;;3.30;;
19605;SDS011;9950;50.168;8.210;2023-05-24T07:11:50;11.95;;;3.08;;
19605;SDS011;9950;50.168;8.210;2023-05-24T07:14:18;11.68;;;3.10;;
19605;SDS011;9950;50.168;8.210;2023-05-24T07:16:47;16.38;;;3.05;;
19605;SDS011;9950;50.168;8.210;2023-05-24T07:19:15;9.70;;;3.08;;
19605;SDS011;9950;50.168;8.210;2023-05-24T07:21:42;10.55;;;2.50;;
19605;SDS011;9950;50.168;8.210;2023-05-24T07:24:10;6.63;;;2.25;;
19605;SDS011;9950;50.168;8.210;2023-05-24T07:26:37;11.07;;;3.47;;
19605;SDS011;9950;50.168;8.210;2023-05-24T07:29:04;11.70;;;2.90;;
19605;SDS011;9950;50.168;8.210;2023-05-24T07:31:31;10.20;;;2.90;;
19605;SDS011;9950;50.168;8.210;2023-05-24T07:33:59;10.77;;;2.60;;
19605;SDS011;9950;50.168;8.210;2023-05-24T07:36:27;15.75;;;2.90;;
19605;SDS011;9950;50.168;8.210;2023-05-24T07:38:56;7.40;;;2.60;;
19605;SDS011;9950;50.168;8.210;2023-05-24T07:41:24;12.45;;;3.42;;
19605;SDS011;9950;50.168;8.210;2023-05-24T07:43:52;6.35;;;2.33;;
19605;SDS011;9950;50.168;8.210;2023-05-24T07:46:19;15.52;;;3.15;;
19605;SDS011;9950;50.168;8.210;2023-05-24T07:48:46;11.10;;;3.00;;
19605;SDS011;9950;50.168;8.210;2023-05-24T07:51:14;10.10;;;3.08;;
19605;SDS011;9950;50.168;8.210;2023-05-24T07:53:42;13.55;;;3.22;;
19605;SDS011;9950;50.168;8.210;2023-05-24T07:56:09;7.10;;;2.28;;
19605;SDS011;9950;50.168;8.210;2023-05-24T07:58:36;9.55;;;2.83;;
19605;SDS011;9950;50.168;8.210;2023-05-24T08:01:05;9.85;;;2.78;;
19605;SDS011;9950;50.168;8.210;2023-05-24T08:03:33;15.65;;;3.47;;
19605;SDS011;9950;50.168;8.210;2023-05-24T08:06:00;8.73;;;2.40;;
19605;SDS011;9950;50.168;8.210;2023-05-24T08:08:28;10.73;;;3.22;;
19605;SDS011;9950;50.168;8.210;2023-05-24T08:10:56;8.55;;;2.97;;
19605;SDS011;9950;50.168;8.210;2023-05-24T08:13:23;9.57;;;3.00;;
19605;SDS011;9950;50.168;8.210;2023-05-24T08:15:50;13.55;;;3.03;;
19605;SDS011;9950;50.168;8.210;2023-05-24T08:18:18;9.68;;;2.80;;
19605;SDS011;9950;50.168;8.210;2023-05-24T08:20:45;12.77;;;3.30;;
19605;SDS011;9950;50.168;8.210;2023-05-24T08:23:12;16.80;;;4.38;;
19605;SDS011;9950;50.168;8.210;2023-05-24T08:25:39;14.52;;;3.42;;
19605;SDS011;9950;50.168;8.210;2023-05-24T08:28:08;6.28;;;2.95;;
19605;SDS011;9950;50.168;8.210;2023-05-24T08:30:36;9.05;;;2.70;;
19605;SDS011;9950;50.168;8.210;2023-05-24T08:33:03;9.07;;;2.97;;
19605;SDS011;9950;50.168;8.210;2023-05-24T08:35:30;12.13;;;3.13;;
19605;SDS011;9950;50.168;8.210;2023-05-24T08:37:57;11.30;;;3.45;;
19605;SDS011;9950;50.168;8.210;2023-05-24T08:40:24;9.02;;;4.03;;
19605;SDS011;9950;50.168;8.210;2023-05-24T08:42:52;16.65;;;3.30;;
19605;SDS011;9950;50.168;8.210;2023-05-24T08:45:20;11.07;;;3.53;;
19605;SDS011;9950;50.168;8.210;2023-05-24T08:47:48;17.05;;;3.65;;
19605;SDS011;9950;50.168;8.210;2023-05-24T08:50:16;11.25;;;3.30;;
19605;SDS011;9950;50.168;8.210;2023-05-24T08:52:44;10.45;;;3.15;;
19605;SDS011;9950;50.168;8.210;2023-05-24T08:55:11;10.68;;;3.00;;
19605;SDS011;9950;50.168;8.210;2023-05-24T08:57:39;13.52;;;3.78;;
19605;SDS011;9950;50.168;8.210;2023-05-24T09:00:06;10.40;;;3.17;;
19605;SDS011;9950;50.168;8.210;2023-05-24T09:02:36;9.30;;;3.15;;
19605;SDS011;9950;50.168;8.210;2023-05-24T09:05:04;12.80;;;3.08;;
19605;SDS011;9950;50.168;8.210;2023-05-24T09:07:32;13.77;;;3.42;;
19605;SDS011;9950;50.168;8.210;2023-05-24T09:10:01;12.63;;;3.25;;
19605;SDS011;9950;50.168;8.210;2023-05-24T09:12:30;10.55;;;3.10;;
19605;SDS011;9950;50.168;8.210;2023-05-24T09:14:58;13.32;;;3.63;;
19605;SDS011;9950;50.168;8.210;2023-05-24T09:17:25;12.00;;;3.22;;
19605;SDS011;9950;50.168;8.210;2023-05-24T09:19:53;14.63;;;4.20;;
19605;SDS011;9950;50.168;8.210;2023-05-24T09:22:22;13.95;;;3.33;;
19605;SDS011;9950;50.168;8.210;2023-05-24T09:24:51;13.63;;;4.18;;
19605;SDS011;9950;50.168;8.210;2023-05-24T09:27:18;14.77;;;3.70;;
19605;SDS011;9950;50.168;8.210;2023-05-24T09:29:46;9.60;;;3.28;;
19605;SDS011;9950;50.168;8.210;2023-05-24T09:32:14;10.30;;;3.97;;
19605;SDS011;9950;50.168;8.210;2023-05-24T09:34:41;11.80;;;3.70;;
19605;SDS011;9950;50.168;8.210;2023-05-24T09:37:11;8.27;;;3.28;;
19605;SDS011;9950;50.168;8.210;2023-05-24T09:39:40;13.80;;;3.75;;
19605;SDS011;9950;50.168;8.210;2023-05-24T09:42:10;13.18;;;3.85;;
19605;SDS011;9950;50.168;8.210;2023-05-24T09:44:41;13.00;;;3.35;;
19605;SDS011;9950;50.168;8.210;2023-05-24T09:47:08;14.30;;;3.33;;
19605;SDS011;9950;50.168;8.210;2023-05-24T09:49:36;11.18;;;3.65;;
19605;SDS011;9950;50.168;8.210;2023-05-24T09:52:03;10.23;;;3.72;;
19605;SDS011;9950;50.168;8.210;2023-05-24T09:54:32;12.05;;;3.90;;
19605;SDS011;9950;50.168;8.210;2023-05-24T09:56:59;10.35;;;3.00;;
19605;SDS011;9950;50.168;8.210;2023-05-24T09:59:30;11.77;;;3.15;;
19605;SDS011;9950;50.168;8.210;2023-05-24T10:02:05;7.80;;;3.25;;
19605;SDS011;9950;50.168;8.210;2023-05-24T10:04:34;9.85;;;3.45;;
19605;SDS011;9950;50.168;8.210;2023-05-24T10:07:02;10.73;;;3.40;;
19605;SDS011;9950;50.168;8.210;2023-05-24T10:09:29;10.70;;;3.28;;
19605;SDS011;9950;50.168;8.210;2023-05-24T10:12:02;11.52;;;3.65;;
19605;SDS011;9950;50.168;8.210;2023-05-24T10:14:30;10.23;;;4.10;;
19605;SDS011;9950;50.168;8.210;2023-05-24T10:17:00;11.57;;;3.78;;
19605;SDS011;9950;50.168;8.210;2023-05-24T10:19:27;10.57;;;3.22;;
19605;SDS011;9950;50.168;8.210;2023-05-24T10:21:55;16.67;;;3.30;;
19605;SDS011;9950;50.168;8.210;2023-05-24T10:24:23;12.15;;;3.78;;
19605;SDS011;9950;50.168;8.210;2023-05-24T10:26:52;17.02;;;4.22;;
19605;SDS011;9950;50.168;8.210;2023-05-24T10:29:23;14.77;;;4.07;;
19605;SDS011;9950;50.168;8.210;2023-05-24T10:31:53;14.75;;;4.90;;
19605;SDS011;9950;50.168;8.210;2023-05-24T10:34:21;13.80;;;4.55;;
19605;SDS011;9950;50.168;8.210;2023-05-24T10:36:48;14.20;;;5.22;;
19605;SDS011;9950;50.168;8.210;2023-05-24T10:39:15;12.43;;;3.72;;
19605;SDS011;9950;50.168;8.210;2023-05-24T10:41:46;11.30;;;4.47;;
19605;SDS011;9950;50.168;8.210;2023-05-24T10:44:16;17.15;;;4.53;;
19605;SDS011;9950;50.168;8.210;2023-05-24T10:47:07;13.55;;;3.80;;
19605;SDS011;9950;50.168;8.210;2023-05-24T10:49:34;12.75;;;3.90;;
19605;SDS011;9950;50.168;8.210;2023-05-24T10:52:05;12.68;;;4.00;;
19605;SDS011;9950;50.168;8.210;2023-05-24T10:54:33;15.15;;;3.92;;
19605;SDS011;9950;50.168;8.210;2023-05-24T10:57:02;11.65;;;3.83;;
19605;SDS011;9950;50.168;8.210;2023-05-24T10:59:32;11.70;;;3.85;;
19605;SDS011;9950;50.168;8.210;2023-05-24T11:02:03;9.35;;;3.75;;
19605;SDS011;9950;50.168;8.210;2023-05-24T11:04:37;9.57;;;3.30;;
19605;SDS011;9950;50.168;8.210;2023-05-24T11:07:04;15.48;;;3.25;;
19605;SDS011;9950;50.168;8.210;2023-05-24T11:09:33;8.77;;;3.33;;
19605;SDS011;9950;50.168;8.210;2023-05-24T11:12:02;12.23;;;3.40;;
19605;SDS011;9950;50.168;8.210;2023-05-24T11:14:33;9.82;;;3.33;;
19605;SDS011;9950;50.168;8.210;2023-05-24T11:17:00;10.68;;;3.60;;
19605;SDS011;9950;50.168;8.210;2023-05-24T11:19:29;11.43;;;4.00;;
19605;SDS011;9950;50.168;8.210;2023-05-24T11:21:58;10.25;;;3.50;;
19605;SDS011;9950;50.168;8.210;2023-05-24T11:24:26;10.55;;;3.65;;
19605;SDS011;9950;50.168;8.210;2023-05-24T11:26:53;13.10;;;3.53;;
19605;SDS011;9950;50.168;8.210;2023-05-24T11:29:21;9.80;;;3.80;;
19605;SDS011;9950;50.168;8.210;2023-05-24T11:31:48;10.55;;;3.85;;
19605;SDS011;9950;50.168;8.210;2023-05-24T11:34:16;10.90;;;3.92;;
19605;SDS011;9950;50.168;8.210;2023-05-24T11:36:43;8.82;;;3.72;;
19605;SDS011;9950;50.168;8.210;2023-05-24T11:39:12;16.42;;;3.58;;
19605;SDS011;9950;50.168;8.210;2023-05-24T11:41:40;12.38;;;4.40;;
19605;SDS011;9950;50.168;8.210;2023-05-24T11:44:08;13.70;;;5.07;;
19605;SDS011;9950;50.168;8.210;2023-05-24T11:46:36;9.95;;;3.60;;
19605;SDS011;9950;50.168;8.210;2023-05-24T11:49:04;11.40;;;4.15;;
19605;SDS011;9950;50.168;8.210;2023-05-24T11:51:32;8.38;;;3.67;;
19605;SDS011;9950;50.168;8.210;2023-05-24T11:53:59;14.38;;;3.33;;
19605;SDS011;9950;50.168;8.210;2023-05-24T11:56:29;11.50;;;3.60;;
19605;SDS011;9950;50.168;8.210;2023-05-24T11:59:01;14.30;;;4.22;;
19605;SDS011;9950;50.168;8.210;2023-05-24T12:01:30;12.95;;;4.10;;
19605;SDS011;9950;50.168;8.210;2023-05-24T12:03:57;13.35;;;4.00;;
19605;SDS011;9950;50.168;8.210;2023-05-24T12:06:32;13.38;;;3.63;;
19605;SDS011;9950;50.168;8.210;2023-05-24T12:08:59;16.23;;;3.90;;
19605;SDS011;9950;50.168;8.210;2023-05-24T12:11:30;10.45;;;3.72;;
19605;SDS011;9950;50.168;8.210;2023-05-24T12:13:58;13.85;;;4.30;;
19605;SDS011;9950;50.168;8.210;2023-05-24T12:16:25;16.70;;;4.70;;
19605;SDS011;9950;50.168;8.210;2023-05-24T12:18:56;10.70;;;3.60;;
19605;SDS011;9950;50.168;8.210;2023-05-24T12:21:23;10.35;;;3.80;;
19605;SDS011;9950;50.168;8.210;2023-05-24T12:23:50;11.93;;;4.88;;
19605;SDS011;9950;50.168;8.210;2023-05-24T12:26:18;12.75;;;4.43;;
19605;SDS011;9950;50.168;8.210;2023-05-24T12:28:48;15.27;;;5.03;;
19605;SDS011;9950;50.168;8.210;2023-05-24T12:31:19;13.98;;;4.03;;
19605;SDS011;9950;50.168;8.210;2023-05-24T12:33:46;14.05;;;4.05;;
19605;SDS011;9950;50.168;8.210;2023-05-24T12:36:14;10.40;;;4.20;;
19605;SDS011;9950;50.168;8.210;2023-05-24T12:38:41;10.90;;;3.65;;
19605;SDS011;9950;50.168;8.210;2023-05-24T12:41:09;15.45;;;4.70;;
19605;SDS011;9950;50.168;8.210;2023-05-24T12:43:37;11.85;;;4.07;;
19605;SDS011;9950;50.168;8.210;2023-05-24T12:46:06;9.82;;;3.58;;
19605;SDS011;9950;50.168;8.210;2023-05-24T12:48:34;11.80;;;3.90;;
19605;SDS011;9950;50.168;8.210;2023-05-24T12:51:01;12.45;;;3.75;;
19605;SDS011;9950;50.168;8.210;2023-05-24T12:53:28;11.68;;;3.53;;
19605;SDS011;9950;50.168;8.210;2023-05-24T12:55:55;9.65;;;3.80;;
19605;SDS011;9950;50.168;8.210;2023-05-24T12:58:24;11.43;;;4.13;;
19605;SDS011;9950;50.168;8.210;2023-05-24T13:00:51;12.27;;;3.50;;
19605;SDS011;9950;50.168;8.210;2023-05-24T13:03:20;13.90;;;3.92;;
19605;SDS011;9950;50.168;8.210;2023-05-24T13:05:47;9.43;;;3.72;;
19605;SDS011;9950;50.168;8.210;2023-05-24T13:08:14;12.82;;;4.10;;
19605;SDS011;9950;50.168;8.210;2023-05-24T13:10:41;10.30;;;4.18;;
19605;SDS011;9950;50.168;8.210;2023-05-24T13:13:08;14.07;;;3.92;;
19605;SDS011;9950;50.168;8.210;2023-05-24T13:15:36;9.23;;;3.50;;
19605;SDS011;9950;50.168;8.210;2023-05-24T13:18:03;11.77;;;3.40;;
19605;SDS011;9950;50.168;8.210;2023-05-24T13:20:32;11.00;;;3.88;;
19605;SDS011;9950;50.168;8.210;2023-05-24T13:22:59;9.93;;;3.70;;
19605;SDS011;9950;50.168;8.210;2023-05-24T13:25:26;11.02;;;3.80;;
19605;SDS011;9950;50.168;8.210;2023-05-24T13:27:53;8.98;;;3.20;;
19605;SDS011;9950;50.168;8.210;2023-05-24T13:30:21;14.65;;;4.63;;
19605;SDS011;9950;50.168;8.210;2023-05-24T13:32:52;17.80;;;4.32;;
19605;SDS011;9950;50.168;8.210;2023-05-24T13:35:19;9.98;;;3.45;;
19605;SDS011;9950;50.168;8.210;2023-05-24T13:37:48;10.60;;;3.40;;
19605;SDS011;9950;50.168;8.210;2023-05-24T13:40:17;11.82;;;3.75;;
19605;SDS011;9950;50.168;8.210;2023-05-24T13:42:45;12.82;;;3.72;;
19605;SDS011;9950;50.168;8.210;2023-05-24T13:45:12;12.13;;;3.63;;
19605;SDS011;9950;50.168;8.210;2023-05-24T13:47:39;12.13;;;3.17;;
19605;SDS011;9950;50.168;8.210;2023-05-24T13:50:07;10.73;;;3.83;;
19605;SDS011;9950;50.168;8.210;2023-05-24T13:52:34;9.20;;;3.15;;
19605;SDS011;9950;50.168;8.210;2023-05-24T13:55:03;9.90;;;3.47;;
19605;SDS011;9950;50.168;8.210;2023-05-24T13:57:30;11.32;;;3.22;;
19605;SDS011;9950;50.168;8.210;2023-05-24T13:59:58;13.05;;;3.58;;
19605;SDS011;9950;50.168;8.210;2023-05-24T14:02:26;15.80;;;3.53;;
19605;SDS011;9950;50.168;8.210;2023-05-24T14:04:53;8.43;;;3.38;;
19605;SDS011;9950;50.168;8.210;2023-05-24T14:07:21;7.32;;;3.25;;
19605;SDS011;9950;50.168;8.210;2023-05-24T14:09:48;12.30;;;3.63;;
19605;SDS011;9950;50.168;8.210;2023-05-24T14:12:16;9.45;;;3.35;;
19605;SDS011;9950;50.168;8.210;2023-05-24T14:14:43;10.60;;;3.35;;
19605;SDS011;9950;50.168;8.210;2023-05-24T14:17:11;9.15;;;2.83;;
19605;SDS011;9950;50.168;8.210;2023-05-24T14:19:38;8.82;;;3.08;;
19605;SDS011;9950;50.168;8.210;2023-05-24T14:22:05;12.15;;;3.28;;
19605;SDS011;9950;50.168;8.210;2023-05-24T14:24:32;7.30;;;3.47;;
19605;SDS011;9950;50.168;8.210;2023-05-24T14:26:59;10.68;;;3.40;;
19605;SDS011;9950;50.168;8.210;2023-05-24T14:29:29;13.82;;;3.45;;
19605;SDS011;9950;50.168;8.210;2023-05-24T14:31:57;13.40;;;3.60;;
19605;SDS011;9950;50.168;8.210;2023-05-24T14:34:24;9.88;;;3.80;;
19605;SDS011;9950;50.168;8.210;2023-05-24T14:36:52;11.27;;;3.50;;
19605;SDS011;9950;50.168;8.210;2023-05-24T14:39:19;10.35;;;3.58;;
19605;SDS011;9950;50.168;8.210;2023-05-24T14:41:46;11.65;;;3.05;;
19605;SDS011;9950;50.168;8.210;2023-05-24T14:44:14;10.05;;;3.53;;
19605;SDS011;9950;50.168;8.210;2023-05-24T14:46:43;10.40;;;3.60;;
19605;SDS011;9950;50.168;8.210;2023-05-24T14:49:10;13.18;;;3.45;;
19605;SDS011;9950;50.168;8.210;2023-05-24T14:51:37;10.15;;;3.25;;
19605;SDS011;9950;50.168;8.210;2023-05-24T14:54:04;10.38;;;3.55;;
19605;SDS011;9950;50.168;8.210;2023-05-24T14:56:31;14.00;;;3.50;;